sensor_id;sensor_type;location;lat;lon;timestamp;pressure;altitude;pressure_sealevel;temperature;humidity
16100;BME280;8154;50.830;12.082;2023-06-04T00:00:53;99835.88;;;26.85;34.00
16100;BME280;8154;50.830;12.082;2023-06-04T00:03:26;99830.28;;;26.87;33.91
16100;BME280;8154;50.830;12.082;2023-06-04T00:05:57;99822.84;;;26.89;33.88
16100;BME280;8154;50.830;12.082;2023-06-04T00:08:28;99815.84;;;26.88;33.74
16100;BME280;8154;50.830;12.082;2023-06-04T00:10:55;99820.56;;;26.86;33.76
16100;BME280;8154;50.830;12.082;2023-06-04T00:13:30;99818.31;;;26.83;33.74
16100;BME280;8154;50.830;12.082;2023-06-04T00:16:05;99820.56;;;26.86;33.63
16100;BME280;8154;50.830;12.082;2023-06-04T00:18:36;99817.69;;;26.87;33.79
16100;BME280;8154;50.830;12.082;2023-06-04T00:21:05;99815.22;;;26.86;33.69
16100;BME280;8154;50.830;12.082;2023-06-04T00:23:38;99810.47;;;26.88;33.75
16100;BME280;8154;50.830;12.082;2023-06-04T00:26:07;99804.47;;;26.86;33.81
16100;BME280;8154;50.830;12.082;2023-06-04T00:28:41;99811.09;;;26.83;33.80
16100;BME280;8154;50.830;12.082;2023-06-04T00:31:10;99811.53;;;26.87;33.67
16100;BME280;8154;50.830;12.082;2023-06-04T00:33:44;99803.25;;;26.82;33.90
16100;BME280;8154;50.830;12.082;2023-06-04T00:36:16;99806.38;;;26.79;33.79
16100;BME280;8154;50.830;12.082;2023-06-04T00:38:48;99801.84;;;26.79;33.67
16100;BME280;8154;50.830;12.082;2023-06-04T00:41:22;99803.25;;;26.82;33.88
16100;BME280;8154;50.830;12.082;2023-06-04T00:43:57;99796.47;;;26.79;33.84
16100;BME280;8154;50.830;12.082;2023-06-04T00:46:31;99790.06;;;26.80;33.84
16100;BME280;8154;50.830;12.082;2023-06-04T00:49:01;99797.91;;;26.82;33.91
16100;BME280;8154;50.830;12.082;2023-06-04T00:51:36;99790.91;;;26.81;33.75
16100;BME280;8154;50.830;12.082;2023-06-04T00:54:07;99792.31;;;26.83;33.53
16100;BME280;8154;50.830;12.082;2023-06-04T00:56:40;99792.97;;;26.79;33.76
16100;BME280;8154;50.830;12.082;2023-06-04T00:59:08;99795.84;;;26.77;33.90
16100;BME280;8154;50.830;12.082;2023-06-04T01:01:51;99793.97;;;26.78;33.69
16100;BME280;8154;50.830;12.082;2023-06-04T01:04:32;99795.63;;;26.79;33.69
16100;BME280;8154;50.830;12.082;2023-06-04T01:07:04;99791.28;;;26.78;33.71
16100;BME280;8154;50.830;12.082;2023-06-04T01:09:36;99791.91;;;26.80;33.57
16100;BME280;8154;50.830;12.082;2023-06-04T01:12:05;99788.81;;;26.76;33.66
16100;BME280;8154;50.830;12.082;2023-06-04T01:14:35;99798.31;;;26.72;33.84
16100;BME280;8154;50.830;12.082;2023-06-04T01:17:37;99798.31;;;26.72;33.73
16100;BME280;8154;50.830;12.082;2023-06-04T01:20:18;99798.31;;;26.79;33.65
16100;BME280;8154;50.830;12.082;2023-06-04T01:25:38;99795.84;;;26.77;33.58
16100;BME280;8154;50.830;12.082;2023-06-04T01:28:12;99797.50;;;26.72;33.81
16100;BME280;8154;50.830;12.082;2023-06-04T01:30:46;99797.50;;;26.72;33.75
16100;BME280;8154;50.830;12.082;2023-06-04T01:33:19;99797.50;;;26.72;33.70
16100;BME280;8154;50.830;12.082;2023-06-04T01:35:52;99791.91;;;26.73;33.68
16100;BME280;8154;50.830;12.082;2023-06-04T01:38:24;99791.91;;;26.73;33.65
16100;BME280;8154;50.830;12.082;2023-06-04T01:40:53;99795.84;;;26.71;33.74
16100;BME280;8154;50.830;12.082;2023-06-04T01:43:27;99804.94;;;26.70;33.78
16100;BME280;8154;50.830;12.082;2023-06-04T04:48:47;99861.81;;;26.39;34.02
16100;BME280;8154;50.830;12.082;2023-06-04T04:51:17;99852.75;;;26.40;34.07
16100;BME280;8154;50.830;12.082;2023-06-04T04:53:46;99855.84;;;26.44;34.02
16100;BME280;8154;50.830;12.082;2023-06-04T04:56:22;99861.59;;;26.47;34.02
16100;BME280;8154;50.830;12.082;2023-06-04T04:58:50;99859.97;;;26.46;33.97
16100;BME280;8154;50.830;12.082;2023-06-04T05:01:21;99859.13;;;26.46;33.94
16100;BME280;8154;50.830;12.082;2023-06-04T05:03:59;99864.91;;;26.43;34.18
16100;BME280;8154;50.830;12.082;2023-06-04T05:06:33;99861.81;;;26.46;34.13
16100;BME280;8154;50.830;12.082;2023-06-04T05:09:01;99872.75;;;26.51;33.96
16100;BME280;8154;50.830;12.082;2023-06-04T05:11:34;99861.63;;;26.54;33.99
16100;BME280;8154;50.830;12.082;2023-06-04T05:14:07;99866.78;;;26.55;33.89
16100;BME280;8154;50.830;12.082;2023-06-04T05:16:41;99862.88;;;26.51;33.99
16100;BME280;8154;50.830;12.082;2023-06-04T05:19:17;99868.84;;;26.47;34.16
16100;BME280;8154;50.830;12.082;2023-06-04T05:21:51;99871.50;;;26.53;34.03
16100;BME280;8154;50.830;12.082;2023-06-04T05:24:23;99868.22;;;26.58;34.12
16100;BME280;8154;50.830;12.082;2023-06-04T05:26:58;99871.50;;;26.60;34.06
16100;BME280;8154;50.830;12.082;2023-06-04T05:29:37;99871.72;;;26.58;34.24
16100;BME280;8154;50.830;12.082;2023-06-04T05:32:08;99877.50;;;26.62;34.17
16100;BME280;8154;50.830;12.082;2023-06-04T05:34:43;99877.13;;;26.65;34.06
16100;BME280;8154;50.830;12.082;2023-06-04T05:37:17;99875.47;;;26.64;34.18
16100;BME280;8154;50.830;12.082;2023-06-04T05:39:47;99881.03;;;26.62;34.27
16100;BME280;8154;50.830;12.082;2023-06-04T05:42:19;99880.84;;;26.64;34.29
16100;BME280;8154;50.830;12.082;2023-06-04T05:44:47;99880.00;;;26.63;34.20
16100;BME280;8154;50.830;12.082;2023-06-04T06:47:38;99904.75;;;26.78;34.76
16100;BME280;8154;50.830;12.082;2023-06-04T06:50:11;99901.06;;;26.79;34.94
16100;BME280;8154;50.830;12.082;2023-06-04T06:52:45;99905.19;;;26.82;34.83
16100;BME280;8154;50.830;12.082;2023-06-04T06:55:21;99916.13;;;26.87;34.91
16100;BME280;8154;50.830;12.082;2023-06-04T06:57:54;99905.41;;;26.87;34.65
16100;BME280;8154;50.830;12.082;2023-06-04T07:00:28;99907.25;;;26.86;34.88
16100;BME280;8154;50.830;12.082;2023-06-04T07:02:56;99898.16;;;26.87;34.85
16100;BME280;8154;50.830;12.082;2023-06-04T07:05:33;99906.81;;;26.89;34.88
16100;BME280;8154;50.830;12.082;2023-06-04T07:08:01;99906.41;;;26.86;34.99
16100;BME280;8154;50.830;12.082;2023-06-04T07:10:38;99907.03;;;26.88;34.82
16100;BME280;8154;50.830;12.082;2023-06-04T07:13:06;99906.19;;;26.87;35.09
16100;BME280;8154;50.830;12.082;2023-06-04T07:15:39;99901.47;;;26.89;34.96
16100;BME280;8154;50.830;12.082;2023-06-04T07:18:11;99911.16;;;26.90;34.97
16100;BME280;8154;50.830;12.082;2023-06-04T07:20:41;99908.88;;;26.94;35.11
16100;BME280;8154;50.830;12.082;2023-06-04T07:23:23;99900.00;;;26.93;35.00
16100;BME280;8154;50.830;12.082;2023-06-04T07:26:00;99903.53;;;26.94;35.04
16100;BME280;8154;50.830;12.082;2023-06-04T07:28:29;99903.53;;;26.94;35.10
16100;BME280;8154;50.830;12.082;2023-06-04T07:30:57;99899.78;;;26.95;35.08
16100;BME280;8154;50.830;12.082;2023-06-04T07:33:30;99903.94;;;26.97;35.05
16100;BME280;8154;50.830;12.082;2023-06-04T07:36:05;99902.31;;;26.96;35.10
16100;BME280;8154;50.830;12.082;2023-06-04T07:38:40;99901.47;;;26.96;35.08
16100;BME280;8154;50.830;12.082;2023-06-04T07:41:09;99899.78;;;26.95;35.14
16100;BME280;8154;50.830;12.082;2023-06-04T07:43:37;99898.56;;;26.97;35.12
16100;BME280;8154;50.830;12.082;2023-06-04T07:46:11;99891.97;;;27.00;35.28
16100;BME280;8154;50.830;12.082;2023-06-04T09:49:47;99897.94;;;27.28;35.55
16100;BME280;8154;50.830;12.082;2023-06-04T09:52:32;99890.28;;;27.25;35.47
16100;BME280;8154;50.830;12.082;2023-06-04T09:55:04;99902.47;;;27.27;35.44
16100;BME280;8154;50.830;12.082;2023-06-04T09:57:46;99891.94;;;27.26;35.64
16100;BME280;8154;50.830;12.082;2023-06-04T10:00:21;99891.94;;;27.26;35.64
16100;BME280;8154;50.830;12.082;2023-06-04T10:03:01;99896.88;;;27.29;35.58
16100;BME280;8154;50.830;12.082;2023-06-04T10:05:38;99903.09;;;27.29;35.53
16100;BME280;8154;50.830;12.082;2023-06-04T10:08:17;99901.25;;;27.30;35.60
16100;BME280;8154;50.830;12.082;2023-06-04T10:10:51;99890.50;;;27.30;35.51
16100;BME280;8154;50.830;12.082;2023-06-04T10:13:24;99882.25;;;27.31;35.35
16100;BME280;8154;50.830;12.082;2023-06-04T10:16:00;99882.03;;;27.33;35.39
16100;BME280;8154;50.830;12.082;2023-06-04T10:18:45;99888.03;;;27.35;35.40
16100;BME280;8154;50.830;12.082;2023-06-04T10:21:25;99880.78;;;27.35;35.35
16100;BME280;8154;50.830;12.082;2023-06-04T10:23:59;99881.19;;;27.39;35.15
16100;BME280;8154;50.830;12.082;2023-06-04T10:26:36;99870.66;;;27.38;35.25
16100;BME280;8154;50.830;12.082;2023-06-04T10:29:14;99878.28;;;27.41;35.33
16100;BME280;8154;50.830;12.082;2023-06-04T10:31:46;99870.44;;;27.39;35.33
16100;BME280;8154;50.830;12.082;2023-06-04T10:34:16;99866.13;;;27.38;35.25
16100;BME280;8154;50.830;12.082;2023-06-04T10:36:49;99877.47;;;27.40;35.28
16100;BME280;8154;50.830;12.082;2023-06-04T10:39:27;99865.50;;;27.36;35.28
16100;BME280;8154;50.830;12.082;2023-06-04T10:42:06;99866.94;;;27.38;35.21
16100;BME280;8154;50.830;12.082;2023-06-04T10:44:53;99873.13;;;27.39;35.29
16100;BME280;8154;50.830;12.082;2023-06-04T10:47:28;99868.78;;;27.45;35.26
16100;BME280;8154;50.830;12.082;2023-06-04T11:51:16;99853.91;;;27.42;35.13
16100;BME280;8154;50.830;12.082;2023-06-04T11:53:58;99847.34;;;27.38;35.25
16100;BME280;8154;50.830;12.082;2023-06-04T11:56:28;99848.34;;;27.37;35.21
16100;BME280;8154;50.830;12.082;2023-06-04T11:59:01;99850.63;;;27.40;35.18
16100;BME280;8154;50.830;12.082;2023-06-04T12:01:40;99851.25;;;27.42;35.00
16100;BME280;8154;50.830;12.082;2023-06-04T12:04:16;99846.09;;;27.41;35.15
16100;BME280;8154;50.830;12.082;2023-06-04T12:06:59;99849.38;;;27.43;35.21
16100;BME280;8154;50.830;12.082;2023-06-04T12:09:34;99842.34;;;27.42;35.09
16100;BME280;8154;50.830;12.082;2023-06-04T12:12:10;99839.66;;;27.42;35.03
16100;BME280;8154;50.830;12.082;2023-06-04T12:14:42;99840.72;;;27.41;35.05
16100;BME280;8154;50.830;12.082;2023-06-04T12:17:18;99838.03;;;27.41;35.02
16100;BME280;8154;50.830;12.082;2023-06-04T12:19:57;99840.72;;;27.41;35.14
16100;BME280;8154;50.830;12.082;2023-06-04T12:22:32;99842.13;;;27.43;35.07
16100;BME280;8154;50.830;12.082;2023-06-04T12:25:04;99847.72;;;27.42;34.97
16100;BME280;8154;50.830;12.082;2023-06-04T12:27:47;99844.22;;;27.41;35.09
16100;BME280;8154;50.830;12.082;2023-06-04T12:30:20;99834.09;;;27.43;35.06
16100;BME280;8154;50.830;12.082;2023-06-04T12:32:54;99836.97;;;27.42;35.05
16100;BME280;8154;50.830;12.082;2023-06-04T12:35:29;99845.03;;;27.42;34.86
16100;BME280;8154;50.830;12.082;2023-06-04T12:38:06;99849.38;;;27.43;34.91
16100;BME280;8154;50.830;12.082;2023-06-04T12:40:45;99845.88;;;27.42;34.96
16100;BME280;8154;50.830;12.082;2023-06-04T12:43:25;99847.13;;;27.40;35.19
16100;BME280;8154;50.830;12.082;2023-06-04T12:45:59;99846.09;;;27.41;34.96
16100;BME280;8154;50.830;12.082;2023-06-04T12:48:38;99846.91;;;27.41;35.09
16100;BME280;8154;50.830;12.082;2023-06-04T12:51:13;99844.00;;;27.43;34.96
16100;BME280;8154;50.830;12.082;2023-06-04T12:53:50;99843.81;;;27.44;35.00
16100;BME280;8154;50.830;12.082;2023-06-04T12:56:23;99844.00;;;27.43;35.02
16100;BME280;8154;50.830;12.082;2023-06-04T12:59:03;99841.13;;;27.44;34.98
16100;BME280;8154;50.830;12.082;2023-06-04T13:01:46;99841.94;;;27.45;34.91
16100;BME280;8154;50.830;12.082;2023-06-04T13:04:19;99840.28;;;27.44;34.94
16100;BME280;8154;50.830;12.082;2023-06-04T13:06:59;99832.03;;;27.45;34.92
16100;BME280;8154;50.830;12.082;2023-06-04T13:09:32;99839.03;;;27.46;34.92
16100;BME280;8154;50.830;12.082;2023-06-04T13:12:09;99839.03;;;27.46;34.86
16100;BME280;8154;50.830;12.082;2023-06-04T13:14:42;99832.03;;;27.45;34.78
16100;BME280;8154;50.830;12.082;2023-06-04T13:17:13;99841.13;;;27.44;34.93
16100;BME280;8154;50.830;12.082;2023-06-04T13:19:53;99831.19;;;27.45;34.86
16100;BME280;8154;50.830;12.082;2023-06-04T13:22:23;99828.50;;;27.45;34.84
16100;BME280;8154;50.830;12.082;2023-06-04T13:25:02;99823.13;;;27.45;34.92
16100;BME280;8154;50.830;12.082;2023-06-04T13:27:33;99826.66;;;27.45;34.84
16100;BME280;8154;50.830;12.082;2023-06-04T13:30:06;99827.91;;;27.43;34.82
16100;BME280;8154;50.830;12.082;2023-06-04T13:32:52;99819.22;;;27.41;34.94
16100;BME280;8154;50.830;12.082;2023-06-04T13:35:23;99814.47;;;27.43;34.80
16100;BME280;8154;50.830;12.082;2023-06-04T13:38:04;99817.38;;;27.41;34.83
16100;BME280;8154;50.830;12.082;2023-06-04T13:40:40;99815.50;;;27.42;34.96
16100;BME280;8154;50.830;12.082;2023-06-04T13:43:25;99816.34;;;27.42;34.87
16100;BME280;8154;50.830;12.082;2023-06-04T13:45:56;99813.88;;;27.41;34.85
16100;BME280;8154;50.830;12.082;2023-06-04T13:48:24;99816.56;;;27.41;34.86
16100;BME280;8154;50.830;12.082;2023-06-04T15:50:29;99758.91;;;27.43;34.43
16100;BME280;8154;50.830;12.082;2023-06-04T15:52:59;99762.66;;;27.42;34.53
16100;BME280;8154;50.830;12.082;2023-06-04T15:55:34;99766.75;;;27.45;34.47
16100;BME280;8154;50.830;12.082;2023-06-04T15:58:04;99761.81;;;27.42;34.63
16100;BME280;8154;50.830;12.082;2023-06-04T16:00:32;99757.28;;;27.42;34.47
16100;BME280;8154;50.830;12.082;2023-06-04T16:03:09;99763.47;;;27.43;34.47
16100;BME280;8154;50.830;12.082;2023-06-04T16:05:48;99768.22;;;27.41;34.51
16100;BME280;8154;50.830;12.082;2023-06-04T16:08:26;99765.53;;;27.41;34.47
16100;BME280;8154;50.830;12.082;2023-06-04T16:10:58;99760.59;;;27.44;34.56
16100;BME280;8154;50.830;12.082;2023-06-04T16:13:32;99758.91;;;27.43;34.44
16100;BME280;8154;50.830;12.082;2023-06-04T16:16:05;99762.66;;;27.42;34.39
16100;BME280;8154;50.830;12.082;2023-06-04T16:18:46;99765.94;;;27.44;34.38
16100;BME280;8154;50.830;12.082;2023-06-04T16:21:25;99758.91;;;27.43;34.49
16100;BME280;8154;50.830;12.082;2023-06-04T16:23:55;99756.00;;;27.45;34.38
16100;BME280;8154;50.830;12.082;2023-06-04T16:26:36;99745.28;;;27.45;34.43
16100;BME280;8154;50.830;12.082;2023-06-04T16:29:15;99756.84;;;27.45;34.43
16100;BME280;8154;50.830;12.082;2023-06-04T16:31:42;99754.38;;;27.44;34.45
16100;BME280;8154;50.830;12.082;2023-06-04T16:34:09;99749.84;;;27.44;34.26
16100;BME280;8154;50.830;12.082;2023-06-04T16:36:36;99748.19;;;27.43;34.20
16100;BME280;8154;50.830;12.082;2023-06-04T16:39:03;99743.63;;;27.44;34.36
16100;BME280;8154;50.830;12.082;2023-06-04T16:41:30;99742.81;;;27.43;34.33
16100;BME280;8154;50.830;12.082;2023-06-04T16:43:56;99742.81;;;27.43;34.28
16100;BME280;8154;50.830;12.082;2023-06-04T16:46:23;99748.78;;;27.45;34.46
16100;BME280;8154;50.830;12.082;2023-06-04T16:48:50;99746.31;;;27.44;34.39
16100;BME280;8154;50.830;12.082;2023-06-04T17:52:14;99749.63;;;27.46;34.36
16100;BME280;8154;50.830;12.082;2023-06-04T17:54:41;99754.16;;;27.45;34.21
16100;BME280;8154;50.830;12.082;2023-06-04T17:57:07;99753.31;;;27.45;34.24
16100;BME280;8154;50.830;12.082;2023-06-04T17:59:33;99745.28;;;27.45;34.16
16100;BME280;8154;50.830;12.082;2023-06-04T18:01:59;99751.47;;;27.45;34.19
16100;BME280;8154;50.830;12.082;2023-06-04T18:04:25;99750.06;;;27.43;34.13
16100;BME280;8154;50.830;12.082;2023-06-04T18:06:51;99758.91;;;27.43;34.21
16100;BME280;8154;50.830;12.082;2023-06-04T18:09:17;99762.44;;;27.44;34.18
16100;BME280;8154;50.830;12.082;2023-06-04T18:11:44;99758.13;;;27.43;34.17
16100;BME280;8154;50.830;12.082;2023-06-04T18:14:10;99752.75;;;27.43;34.20
16100;BME280;8154;50.830;12.082;2023-06-04T18:16:36;99758.31;;;27.41;34.14
16100;BME280;8154;50.830;12.082;2023-06-04T18:19:02;99757.28;;;27.42;34.23
16100;BME280;8154;50.830;12.082;2023-06-04T18:21:28;99761.59;;;27.43;34.07
16100;BME280;8154;50.830;12.082;2023-06-04T18:23:54;99759.97;;;27.42;34.28
16100;BME280;8154;50.830;12.082;2023-06-04T18:26:22;99754.59;;;27.42;34.13
16100;BME280;8154;50.830;12.082;2023-06-04T18:28:48;99762.66;;;27.42;34.20
16100;BME280;8154;50.830;12.082;2023-06-04T18:31:15;99768.00;;;27.42;34.16
16100;BME280;8154;50.830;12.082;2023-06-04T18:33:51;99766.38;;;27.41;34.23
16100;BME280;8154;50.830;12.082;2023-06-04T18:36:18;99769.66;;;27.43;34.19
16100;BME280;8154;50.830;12.082;2023-06-04T18:38:44;99768.63;;;27.44;34.11
16100;BME280;8154;50.830;12.082;2023-06-04T18:41:10;99764.28;;;27.43;34.10
16100;BME280;8154;50.830;12.082;2023-06-04T18:43:37;99763.69;;;27.41;34.14
16100;BME280;8154;50.830;12.082;2023-06-04T18:46:03;99763.06;;;27.39;34.28
16100;BME280;8154;50.830;12.082;2023-06-04T18:48:29;99763.69;;;27.41;34.09
16100;BME280;8154;50.830;12.082;2023-06-04T18:50:55;99763.06;;;27.39;34.13
16100;BME280;8154;50.830;12.082;2023-06-04T18:53:22;99769.06;;;27.41;34.03
16100;BME280;8154;50.830;12.082;2023-06-04T18:55:48;99765.53;;;27.41;34.17
16100;BME280;8154;50.830;12.082;2023-06-04T18:58:14;99767.19;;;27.42;34.00
16100;BME280;8154;50.830;12.082;2023-06-04T19:00:40;99773.81;;;27.39;34.07
16100;BME280;8154;50.830;12.082;2023-06-04T19:03:06;99773.59;;;27.41;34.02
16100;BME280;8154;50.830;12.082;2023-06-04T19:05:32;99779.41;;;27.38;34.02
16100;BME280;8154;50.830;12.082;2023-06-04T19:08:01;99778.19;;;27.33;34.26
16100;BME280;8154;50.830;12.082;2023-06-04T19:10:27;99784.97;;;27.36;34.14
16100;BME280;8154;50.830;12.082;2023-06-04T19:12:54;99779.19;;;27.39;34.15
16100;BME280;8154;50.830;12.082;2023-06-04T19:15:20;99788.72;;;27.35;34.16
16100;BME280;8154;50.830;12.082;2023-06-04T19:17:46;99787.66;;;27.36;34.10
16100;BME280;8154;50.830;12.082;2023-06-04T19:20:14;99796.97;;;27.33;34.12
16100;BME280;8154;50.830;12.082;2023-06-04T19:22:41;99788.28;;;27.38;34.07
16100;BME280;8154;50.830;12.082;2023-06-04T19:25:08;99798.19;;;27.38;34.12
16100;BME280;8154;50.830;12.082;2023-06-04T19:27:35;99801.50;;;27.33;34.20
16100;BME280;8154;50.830;12.082;2023-06-04T19:30:01;99802.75;;;27.30;34.25
16100;BME280;8154;50.830;12.082;2023-06-04T19:32:28;99798.22;;;27.31;34.20
16100;BME280;8154;50.830;12.082;2023-06-04T19:34:55;99801.94;;;27.30;34.08
16100;BME280;8154;50.830;12.082;2023-06-04T19:37:21;99800.88;;;27.31;34.24
16100;BME280;8154;50.830;12.082;2023-06-04T19:39:47;99806.69;;;27.28;34.20
16100;BME280;8154;50.830;12.082;2023-06-04T19:42:13;99803.38;;;27.26;34.19
16100;BME280;8154;50.830;12.082;2023-06-04T19:44:39;99809.38;;;27.28;34.14
16100;BME280;8154;50.830;12.082;2023-06-04T19:47:05;99807.72;;;27.27;34.12
16100;BME280;8154;50.830;12.082;2023-06-04T19:49:31;99813.09;;;27.27;34.29
16100;BME280;8154;50.830;12.082;2023-06-04T20:53:13;99855.19;;;27.13;34.26
16100;BME280;8154;50.830;12.082;2023-06-04T20:55:39;99863.88;;;27.09;34.29
16100;BME280;8154;50.830;12.082;2023-06-04T20:58:05;99860.19;;;27.10;34.31
16100;BME280;8154;50.830;12.082;2023-06-04T21:00:31;99867.19;;;27.11;34.27
16100;BME280;8154;50.830;12.082;2023-06-04T21:02:57;99857.69;;;27.08;34.34
16100;BME280;8154;50.830;12.082;2023-06-04T21:05:24;99867.38;;;27.09;34.25
16100;BME280;8154;50.830;12.082;2023-06-04T21:07:50;99861.19;;;27.09;34.34
16100;BME280;8154;50.830;12.082;2023-06-04T21:10:16;99869.25;;;27.09;34.25
16100;BME280;8154;50.830;12.082;2023-06-04T21:12:42;99872.97;;;27.08;34.32
16100;BME280;8154;50.830;12.082;2023-06-04T21:15:08;99873.59;;;27.10;34.35
16100;BME280;8154;50.830;12.082;2023-06-04T21:17:34;99870.91;;;27.10;34.26
16100;BME280;8154;50.830;12.082;2023-06-04T21:20:00;99873.59;;;27.10;34.23
16100;BME280;8154;50.830;12.082;2023-06-04T21:22:27;99871.91;;;27.09;34.20
16100;BME280;8154;50.830;12.082;2023-06-04T21:24:54;99876.28;;;27.10;34.32
16100;BME280;8154;50.830;12.082;2023-06-04T21:27:20;99873.81;;;27.08;34.12
16100;BME280;8154;50.830;12.082;2023-06-04T21:29:46;99876.28;;;27.10;34.10
16100;BME280;8154;50.830;12.082;2023-06-04T21:32:12;99872.75;;;27.09;34.15
16100;BME280;8154;50.830;12.082;2023-06-04T21:34:39;99877.28;;;27.15;34.05
16100;BME280;8154;50.830;12.082;2023-06-04T21:37:05;99873.97;;;27.20;33.93
16100;BME280;8154;50.830;12.082;2023-06-04T21:39:31;99877.47;;;27.20;33.96
16100;BME280;8154;50.830;12.082;2023-06-04T21:41:58;99879.75;;;27.23;33.85
16100;BME280;8154;50.830;12.082;2023-06-04T21:44:24;99877.47;;;27.20;34.00
16100;BME280;8154;50.830;12.082;2023-06-04T21:46:50;99865.31;;;27.18;34.21
16100;BME280;8154;50.830;12.082;2023-06-04T21:49:16;99874.19;;;27.18;34.03
16100;BME280;8154;50.830;12.082;2023-06-04T21:51:42;99879.34;;;27.20;33.95
16100;BME280;8154;50.830;12.082;2023-06-04T21:54:08;99885.13;;;27.17;33.90
16100;BME280;8154;50.830;12.082;2023-06-04T21:56:37;99877.06;;;27.17;33.94
16100;BME280;8154;50.830;12.082;2023-06-04T21:59:04;99875.84;;;27.19;33.96
16100;BME280;8154;50.830;12.082;2023-06-04T22:01:30;99872.31;;;27.19;33.75
16100;BME280;8154;50.830;12.082;2023-06-04T22:03:56;99878.75;;;27.18;33.89
16100;BME280;8154;50.830;12.082;2023-06-04T22:06:23;99874.38;;;27.17;33.93
16100;BME280;8154;50.830;12.082;2023-06-04T22:08:49;99879.13;;;27.21;33.76
16100;BME280;8154;50.830;12.082;2023-06-04T22:11:15;99874.59;;;27.15;33.82
16100;BME280;8154;50.830;12.082;2023-06-04T22:13:42;99874.38;;;27.17;33.97
16100;BME280;8154;50.830;12.082;2023-06-04T22:16:08;99875.84;;;27.19;33.83
16100;BME280;8154;50.830;12.082;2023-06-04T22:18:34;99875.00;;;27.19;33.89
16100;BME280;8154;50.830;12.082;2023-06-04T22:21:00;99875.22;;;27.17;33.96
16100;BME280;8154;50.830;12.082;2023-06-04T22:23:26;99879.97;;;27.15;34.07
16100;BME280;8154;50.830;12.082;2023-06-04T22:25:53;99878.53;;;27.13;33.90
16100;BME280;8154;50.830;12.082;2023-06-04T22:28:19;99874.19;;;27.12;33.98
16100;BME280;8154;50.830;12.082;2023-06-04T22:30:45;99869.66;;;27.12;33.77
16100;BME280;8154;50.830;12.082;2023-06-04T22:33:11;99872.13;;;27.14;34.01
16100;BME280;8154;50.830;12.082;2023-06-04T22:35:37;99874.41;;;27.10;33.92
16100;BME280;8154;50.830;12.082;2023-06-04T22:38:03;99866.97;;;27.12;33.85
16100;BME280;8154;50.830;12.082;2023-06-04T22:40:29;99865.31;;;27.18;33.72
16100;BME280;8154;50.830;12.082;2023-06-04T22:42:55;99867.56;;;27.27;33.71
16100;BME280;8154;50.830;12.082;2023-06-04T22:45:22;99878.75;;;27.18;33.69
16100;BME280;8154;50.830;12.082;2023-06-04T22:47:49;99871.69;;;27.17;33.85
16100;BME280;8154;50.830;12.082;2023-06-04T22:50:15;99870.50;;;27.13;33.89
16100;BME280;8154;50.830;12.082;2023-06-04T22:52:41;99872.75;;;27.09;33.86
16100;BME280;8154;50.830;12.082;2023-06-04T22:55:09;99864.28;;;27.19;33.74
16100;BME280;8154;50.830;12.082;2023-06-04T22:57:36;99865.13;;;27.19;33.92
16100;BME280;8154;50.830;12.082;2023-06-04T23:00:04;99871.13;;;27.15;33.74
16100;BME280;8154;50.830;12.082;2023-06-04T23:02:31;99864.28;;;27.12;33.77
16100;BME280;8154;50.830;12.082;2023-06-04T23:04:58;99855.03;;;27.08;33.89
16100;BME280;8154;50.830;12.082;2023-06-04T23:07:24;99852.13;;;27.10;33.78
16100;BME280;8154;50.830;12.082;2023-06-04T23:09:50;99854.59;;;27.11;33.81
16100;BME280;8154;50.830;12.082;2023-06-04T23:12:17;99858.50;;;27.09;33.95
16100;BME280;8154;50.830;12.082;2023-06-04T23:14:43;99846.53;;;27.18;33.61
16100;BME280;8154;50.830;12.082;2023-06-04T23:17:10;99857.44;;;27.23;33.63
16100;BME280;8154;50.830;12.082;2023-06-04T23:19:36;99860.16;;;27.16;33.74
16100;BME280;8154;50.830;12.082;2023-06-04T23:22:03;99858.50;;;27.09;33.77
16100;BME280;8154;50.830;12.082;2023-06-04T23:24:29;99852.13;;;27.10;33.74
16100;BME280;8154;50.830;12.082;2023-06-04T23:26:55;99860.59;;;27.07;33.74
16100;BME280;8154;50.830;12.082;2023-06-04T23:29:21;99855.03;;;27.08;33.63
16100;BME280;8154;50.830;12.082;2023-06-04T23:31:48;99856.44;;;27.04;33.93
16100;BME280;8154;50.830;12.082;2023-06-04T23:34:14;99853.97;;;27.03;33.75
16100;BME280;8154;50.830;12.082;2023-06-04T23:36:40;99851.28;;;27.03;33.90
16100;BME280;8154;50.830;12.082;2023-06-04T23:39:06;99844.88;;;27.10;33.58
16100;BME280;8154;50.830;12.082;2023-06-04T23:41:32;99847.75;;;27.15;33.58
16100;BME280;8154;50.830;12.082;2023-06-04T23:43:58;99849.03;;;27.13;33.67
16100;BME280;8154;50.830;12.082;2023-06-04T23:46:24;99842.63;;;27.07;33.66
16100;BME280;8154;50.830;12.082;2023-06-04T23:48:51;99852.13;;;27.03;33.70
16100;BME280;8154;50.830;12.082;2023-06-04T23:51:17;99854.19;;;27.01;33.80
16100;BME280;8154;50.830;12.082;2023-06-04T23:53:43;99859.34;;;27.03;33.71
16100;BME280;8154;50.830;12.082;2023-06-04T23:56:09;99846.97;;;27.02;33.78
16100;BME280;8154;50.830;12.082;2023-06-04T23:58:35;99843.25;;;27.03;33.72
